Language selection

Weather shortcuts

Atlantic - Newfoundland: Past 24 Hour Conditions

 

West Chedabucto Bay - 44489

08:00 PM ADT 24 April 2024Buoy position: 45.49N 61.14W
Disclaimer

This table is a summary of hourly weather conditions for the past 24 hours.
Please note that these observations might not always be representative of weather conditions over their associated marine area.

Date / Time
(ADT)
Wind(knots) Wave height(m) Wave period(s) Pressure(kPa) Air tempC) Water tempC)
24 April 2024
20:00 NNW 5 gusts 6 0.64 6.8 100.6 4 4
19:00 NNW 15 gusts 18 0.76 6.5 100.6 5 4
18:00 NNW 11 gusts 14 0.86 6.7 100.6 5 4
17:00 N 8 gusts 11 0.83 6.4 100.6 5 4
16:00 NNE 11 gusts 14 0.91 6.4 100.6 4 4
15:00 NNE 12 gusts 15 0.86 6.3 100.6 4 4
14:00 NE 11 gusts 15 0.87 6.1 100.7 4 4
13:00 ENE 11 gusts 14 0.89 5.9 100.8 4 4
12:00 ENE 13 gusts 16 0.93 5.9 101.0 4 4
11:00 E 12 gusts 16 0.87 5.7 101.1 4 4
10:00 E 14 gusts 18 0.87 5.3 101.1 3 4
9:00 E 15 gusts 18 0.76 5.2 101.3 3 4
8:00 E 14 gusts 17 0.75 5.0 101.4 3 4
7:00 ENE 11 gusts 13 0.68 4.7 101.5 3 4
6:00 E 14 gusts 17 0.63 4.2 101.6 3 4
5:00 E 16 gusts 19 0.57 3.7 101.7 3 4
4:00 E 14 gusts 17 0.56 3.8 101.8 3 4
3:00 ESE 15 gusts 18 0.49 3.5 101.9 3 4
2:00 ESE 12 gusts 15 0.46 3.4 102.0 3 4
1:00 ESE 12 gusts 15 0.39 3.5 102.1 3 4
0:00 SE 11 gusts 13 0.36 3.5 102.2 3 4
23 April 2024
23:00 SE 10 gusts 12 0.38 3.8 102.3 3 4
22:00 SSE 10 gusts 12 0.39 3.6 102.3 3 4
21:00 S 11 gusts 13 0.39 3.2 102.3 3 4
20:00 S 10 gusts 12 0.41 3.4 102.4 3 4

Zoom-in to make a selection

Map of Atlantic - Newfoundland marine weather areas Banquereau - 44139 East Chedabucto Bay – 44488 West Chedabucto Bay – 44489 Blanc-Sablon Airport Cap Whittle Chevery Natashquan Airport Heath Point Îles de la Madeleine Airport Miscou Island Eskasoni (First Nations) Grand Étang Ingonish Beach North Mountain St.Paul Island J.A. Douglas McCurdy Sydney Airport Charlottetown Airport East Point North Cape Argentia Berry Hill Bonavista Burgeo Cape Race Corner Brook Daniel's Harbour Englee Ferolle Point La Scie Port aux Basques Sagona Island St. Anthony Airport St. John's Int'l Airport St. Lawrence Stephenville Airport Twillingate Winterland Branch Hill Wreckhouse Grates Cove Pool's Island Marticot Island Long Pond Cartwright Airport Mary's Harbour
Legend:
buoy Buoy
land station Land Station

Atlantic - Newfoundland Area

Another Region

Features

Fourth Intergovernmental Negotiating Committee (INC-4) - Canada.ca

Canada is hosting United Nations negotiations in Ottawa April 23-29 to develop a global agreement on plastic pollution by the end of 2024.

Date modified: